Terminal Aerodrome Forecast
Issued by NWS

Home | Current Version | Previous Version | Text Only | Print | Product List | Glossary On
Versions: 1 2 3 4 5 6 7 8 9 10 11 12 13 14 15 16 17 18 19 20 21 22 23 24
000
FTUS43 KDLH 290537
TAFHYR
TAF
KHYR 290537Z 2906/3006 VRB03KT P6SM SCT050 SCT100
     FM290900 24004KT P6SM VCSH SCT025 BKN050
      TEMPO 2909/2912 BKN012
     FM291200 25006KT P6SM VCSH OVC008
     FM291500 26008KT P6SM VCSH OVC012
     FM291900 26011KT 6SM -SHRA BR OVC015
     FM300100 26005KT P6SM VCSH BKN025=

USA.gov is the U.S. government's official web portal to all federal, state and local government web resources and services.